createdAt,value
2022-12-11T00:00:21.836Z,75.34
2022-12-11T00:02:48.625Z,75.25
2022-12-11T00:05:15.497Z,75.19
2022-12-11T00:07:42.357Z,74.95
2022-12-11T00:10:09.615Z,75.12
2022-12-11T00:12:36.382Z,75.23
2022-12-11T00:15:03.403Z,75.16
2022-12-11T00:17:30.183Z,75.06
2022-12-11T00:19:56.959Z,75.22
2022-12-11T00:22:23.751Z,75.20
2022-12-11T00:24:51.670Z,75.00
2022-12-11T00:27:18.476Z,75.11
2022-12-11T00:29:45.310Z,75.15
2022-12-11T00:32:12.154Z,75.12
2022-12-11T00:34:39.040Z,75.21
2022-12-11T00:37:05.848Z,75.10
2022-12-11T00:39:32.768Z,75.20
2022-12-11T00:41:59.605Z,75.24
2022-12-11T00:44:26.431Z,75.07
2022-12-11T00:46:53.176Z,75.08
2022-12-11T00:49:19.963Z,75.15
2022-12-11T00:51:46.772Z,75.03
2022-12-11T00:54:13.638Z,75.10
2022-12-11T00:56:40.519Z,75.07
2022-12-11T00:59:07.342Z,75.20
2022-12-11T01:01:34.404Z,75.09
2022-12-11T01:04:01.298Z,74.94
2022-12-11T01:06:28.698Z,74.88
2022-12-11T01:09:14.666Z,74.92
2022-12-11T01:11:43.050Z,74.89
2022-12-11T01:14:11.886Z,74.91
2022-12-11T01:16:38.926Z,74.87
2022-12-11T01:19:05.874Z,74.87
2022-12-11T01:21:32.701Z,74.99
2022-12-11T01:23:59.458Z,74.75
2022-12-11T01:26:26.241Z,74.64
2022-12-11T01:28:53.140Z,74.62
2022-12-11T01:31:20.786Z,74.61
2022-12-11T01:33:48.038Z,74.37
2022-12-11T01:36:18.243Z,74.64
2022-12-11T01:38:46.732Z,74.54
2022-12-11T01:41:14.354Z,74.51
2022-12-11T01:44:05.185Z,74.25
2022-12-11T01:46:34.357Z,74.25
2022-12-11T01:49:04.836Z,74.14
2022-12-11T01:51:36.740Z,74.00
2022-12-11T01:54:09.142Z,73.77
2022-12-11T01:56:38.049Z,73.74
2022-12-11T01:59:08.174Z,73.57
2022-12-11T02:01:43.155Z,73.50
2022-12-11T02:04:11.256Z,73.52
2022-12-11T02:06:47.039Z,73.56
2022-12-11T02:09:17.156Z,73.49
2022-12-11T02:11:59.233Z,73.37
2022-12-11T02:14:38.122Z,73.25
2022-12-11T02:17:06.804Z,73.16
2022-12-11T02:19:48.865Z,72.96
2022-12-11T02:22:37.684Z,72.84
2022-12-11T02:25:30.692Z,72.94
2022-12-11T02:28:31.788Z,72.64
2022-12-11T02:31:07.435Z,72.74
2022-12-11T02:33:42.402Z,72.32
2022-12-11T02:36:10.675Z,72.53
2022-12-11T02:38:41.816Z,72.28
2022-12-11T02:41:11.998Z,72.05
2022-12-11T02:43:40.479Z,71.76
2022-12-11T02:46:08.806Z,71.91
2022-12-11T02:48:37.213Z,71.54
2022-12-11T02:51:06.926Z,71.44
2022-12-11T02:53:37.465Z,71.14
2022-12-11T02:56:11.183Z,71.04
2022-12-11T02:58:43.530Z,70.87
2022-12-11T03:01:10.707Z,71.02
2022-12-11T03:03:37.771Z,70.93
2022-12-11T03:06:04.840Z,70.51
2022-12-11T03:08:32.215Z,70.51
2022-12-11T03:10:59.113Z,70.30
2022-12-11T03:13:25.912Z,70.09
2022-12-11T03:16:12.196Z,70.07
2022-12-11T03:18:51.147Z,69.82
2022-12-11T03:21:35.119Z,69.78
2022-12-11T03:24:04.629Z,70.08
2022-12-11T03:26:37.277Z,69.88
2022-12-11T03:29:32.445Z,70.00
2022-12-11T03:32:03.272Z,69.68
2022-12-11T03:34:41.679Z,70.04
2022-12-11T03:37:10.313Z,70.00
2022-12-11T03:39:42.434Z,69.86
2022-12-11T03:42:13.944Z,69.75
2022-12-11T03:44:43.729Z,69.76
2022-12-11T03:47:11.424Z,69.44
2022-12-11T03:49:41.743Z,69.25
2022-12-11T03:52:11.471Z,69.55
2022-12-11T03:54:41.290Z,69.39
2022-12-11T03:57:10.640Z,69.12
2022-12-11T03:59:37.451Z,69.09
2022-12-11T04:02:10.975Z,68.88
2022-12-11T04:04:39.296Z,68.73
2022-12-11T04:07:06.807Z,68.25
2022-12-11T04:09:34.304Z,68.10
2022-12-11T04:12:01.084Z,68.09
2022-12-11T04:14:46.472Z,68.00
2022-12-11T04:17:33.206Z,68.00
2022-12-11T04:20:18.813Z,67.87
2022-12-11T04:23:03.956Z,67.35
2022-12-11T04:25:30.773Z,67.27
2022-12-11T04:27:57.553Z,66.55
2022-12-11T04:30:30.781Z,66.30
2022-12-11T04:33:00.735Z,66.53
2022-12-11T04:35:27.563Z,66.55
2022-12-11T04:37:54.403Z,66.23
2022-12-11T04:40:21.381Z,65.75
2022-12-11T04:42:48.180Z,65.32
2022-12-11T04:45:15.432Z,65.43
2022-12-11T04:47:42.390Z,65.46
2022-12-11T04:50:14.384Z,65.47
2022-12-11T04:52:41.896Z,65.51
2022-12-11T04:55:09.497Z,64.88
2022-12-11T04:57:36.618Z,65.16
2022-12-11T05:00:06.629Z,65.31
2022-12-11T05:02:38.982Z,65.33
2022-12-11T05:05:07.234Z,64.93
2022-12-11T05:07:34.144Z,65.17
2022-12-11T05:10:00.975Z,64.94
2022-12-11T05:12:28.075Z,64.68
2022-12-11T05:14:55.399Z,64.39
2022-12-11T05:17:22.768Z,64.31
2022-12-11T05:19:52.278Z,64.46
2022-12-11T05:22:19.613Z,64.24
2022-12-11T05:24:46.506Z,64.05
2022-12-11T05:27:13.448Z,64.19
2022-12-11T05:29:40.306Z,64.00
2022-12-11T05:32:07.126Z,63.93
2022-12-11T05:34:33.885Z,64.22
2022-12-11T05:37:01.578Z,64.05
2022-12-11T05:39:28.404Z,64.26
2022-12-11T05:41:55.182Z,64.61
2022-12-11T05:44:22.054Z,64.91
2022-12-11T05:46:49.810Z,64.61
2022-12-11T05:49:19.867Z,64.17
2022-12-11T05:51:47.670Z,64.45
2022-12-11T05:54:14.738Z,64.72
2022-12-11T05:56:41.625Z,64.72
2022-12-11T05:59:09.175Z,64.71
2022-12-11T06:01:43.325Z,64.49
2022-12-11T06:04:12.278Z,64.62
2022-12-11T06:06:40.524Z,64.69
2022-12-11T06:09:07.780Z,64.90
2022-12-11T06:11:35.012Z,64.57
2022-12-11T06:14:03.352Z,64.77
2022-12-11T06:16:30.962Z,65.00
2022-12-11T06:18:58.785Z,64.65
2022-12-11T06:21:31.049Z,64.67
2022-12-11T06:24:00.436Z,64.89
2022-12-11T06:26:27.800Z,64.90
2022-12-11T06:28:54.846Z,64.94
2022-12-11T06:31:21.817Z,65.02
2022-12-11T06:33:48.715Z,65.07
2022-12-11T06:36:23.116Z,65.11
2022-12-11T06:38:50.785Z,65.12
2022-12-11T06:41:17.719Z,64.94
2022-12-11T06:43:44.716Z,64.96
2022-12-11T06:46:19.631Z,65.25
2022-12-11T06:48:47.717Z,64.98
2022-12-11T06:51:18.309Z,64.44
2022-12-11T06:53:45.744Z,64.38
2022-12-11T06:56:14.693Z,64.76
2022-12-11T06:58:43.182Z,64.54
2022-12-11T07:01:22.121Z,64.36
2022-12-11T07:03:49.321Z,64.50
2022-12-11T07:06:16.626Z,64.20
2022-12-11T07:08:43.753Z,64.19
2022-12-11T07:11:14.737Z,63.84
2022-12-11T07:13:44.501Z,63.44
2022-12-11T07:16:13.056Z,63.15
2022-12-11T07:18:41.700Z,62.60
2022-12-11T07:21:11.398Z,62.50
2022-12-11T07:23:38.256Z,62.54
2022-12-11T07:26:07.016Z,62.53
2022-12-11T07:28:34.541Z,62.69
2022-12-11T07:31:09.949Z,62.18
2022-12-11T07:33:36.840Z,62.29
2022-12-11T07:36:06.525Z,62.67
2022-12-11T07:38:33.289Z,62.75
2022-12-11T07:41:08.408Z,61.85
2022-12-11T07:43:36.085Z,61.60
2022-12-11T07:46:08.211Z,61.00
2022-12-11T07:48:36.589Z,61.73
2022-12-11T07:51:22.993Z,62.00
2022-12-11T07:53:50.456Z,61.14
2022-12-11T07:56:18.963Z,60.85
2022-12-11T07:58:46.810Z,61.50
2022-12-11T08:01:18.849Z,61.66
2022-12-11T08:03:46.017Z,60.98
2022-12-11T08:06:13.395Z,60.93
2022-12-11T08:08:41.795Z,61.08
2022-12-11T08:11:13.221Z,61.21
2022-12-11T08:13:41.023Z,60.93
2022-12-11T08:16:11.558Z,61.41
2022-12-11T08:18:38.896Z,61.23
2022-12-11T08:21:12.039Z,61.19
2022-12-11T08:23:38.855Z,60.92
2022-12-11T08:26:08.463Z,60.65
2022-12-11T08:28:35.316Z,60.80
2022-12-11T08:31:05.511Z,61.09
2022-12-11T08:33:32.344Z,60.92
2022-12-11T08:36:02.059Z,61.03
2022-12-11T08:38:28.861Z,61.15
2022-12-11T08:40:55.702Z,60.77
2022-12-11T08:43:22.546Z,60.54
2022-12-11T08:45:49.470Z,60.50
2022-12-11T08:48:16.424Z,60.34
2022-12-11T08:50:43.384Z,60.43
2022-12-11T08:53:10.160Z,60.37
2022-12-11T08:55:36.931Z,60.49
2022-12-11T08:58:03.846Z,60.09
2022-12-11T09:00:30.578Z,59.41
2022-12-11T09:02:57.472Z,58.80
2022-12-11T09:05:24.250Z,58.98
2022-12-11T09:07:51.071Z,58.75
2022-12-11T09:10:18.521Z,58.76
2022-12-11T09:12:45.357Z,58.61
2022-12-11T09:15:12.480Z,58.49
2022-12-11T09:17:39.548Z,58.55
2022-12-11T09:20:06.971Z,58.58
2022-12-11T09:22:34.235Z,58.59
2022-12-11T09:25:01.077Z,58.69
2022-12-11T09:27:27.912Z,58.77
2022-12-11T09:29:54.794Z,58.77
2022-12-11T09:32:21.549Z,59.17
2022-12-11T09:34:50.995Z,59.28
2022-12-11T09:37:17.898Z,59.42
2022-12-11T09:39:44.689Z,59.35
2022-12-11T09:42:20.662Z,59.38
2022-12-11T09:44:53.066Z,59.42
2022-12-11T09:47:25.798Z,59.36
2022-12-11T09:50:12.954Z,59.25
2022-12-11T09:52:57.853Z,59.15
2022-12-11T09:55:29.707Z,59.30
2022-12-11T09:58:14.528Z,59.11
2022-12-11T10:00:49.351Z,59.34
2022-12-11T10:03:37.988Z,59.44
2022-12-11T10:06:12.794Z,59.50
2022-12-11T10:09:11.686Z,59.76
2022-12-11T10:12:06.619Z,59.93
2022-12-11T10:15:20.443Z,60.02
2022-12-11T10:17:47.569Z,60.08
2022-12-11T10:20:25.184Z,60.20
2022-12-11T10:22:54.442Z,60.07
2022-12-11T10:25:31.294Z,59.90
2022-12-11T10:27:58.399Z,60.19
2022-12-11T10:30:34.311Z,59.93
2022-12-11T10:33:27.000Z,59.62
2022-12-11T10:35:56.836Z,59.75
2022-12-11T10:38:32.621Z,59.47
2022-12-11T10:41:05.921Z,59.37
2022-12-11T10:43:38.002Z,59.46
2022-12-11T10:46:07.067Z,59.32
2022-12-11T10:48:34.000Z,59.21
2022-12-11T10:51:07.218Z,59.39
2022-12-11T10:53:34.955Z,59.12
2022-12-11T10:56:02.427Z,59.22
2022-12-11T10:58:34.145Z,59.51
2022-12-11T11:01:21.473Z,59.40
2022-12-11T11:04:15.528Z,59.51
2022-12-11T11:06:42.330Z,59.08
2022-12-11T11:09:30.339Z,58.95
2022-12-11T11:11:57.179Z,59.09
2022-12-11T11:14:24.005Z,59.06
2022-12-11T11:16:55.057Z,58.93
2022-12-11T11:19:27.062Z,59.05
2022-12-11T11:21:56.735Z,59.05
2022-12-11T11:24:43.756Z,59.12
2022-12-11T11:27:37.152Z,59.37
2022-12-11T11:30:22.058Z,59.75
2022-12-11T11:32:52.019Z,59.93
2022-12-11T11:35:22.458Z,60.16
2022-12-11T11:38:04.394Z,60.19
2022-12-11T11:40:38.072Z,60.22
2022-12-11T11:43:17.753Z,60.10
2022-12-11T11:45:47.838Z,59.92
2022-12-11T11:48:40.434Z,59.92
2022-12-11T11:51:15.884Z,60.03
2022-12-11T11:53:48.659Z,60.18
2022-12-11T11:56:47.925Z,60.47
2022-12-11T11:59:27.552Z,60.52
2022-12-11T12:01:56.836Z,60.25
2022-12-11T12:04:27.607Z,60.43
2022-12-11T12:07:22.542Z,60.59
2022-12-11T12:10:18.871Z,60.76
2022-12-11T12:13:44.471Z,60.56
2022-12-11T12:16:01.986Z,60.51
2022-12-11T12:18:31.756Z,60.68
2022-12-11T12:21:26.567Z,60.82
2022-12-11T12:24:11.533Z,61.04
2022-12-11T12:26:44.249Z,61.13
2022-12-11T12:29:22.668Z,60.96
2022-12-11T12:32:09.642Z,61.03
2022-12-11T12:35:27.621Z,61.26
2022-12-11T12:37:57.369Z,61.31
2022-12-11T12:40:51.222Z,61.38
2022-12-11T12:43:42.995Z,61.57
2022-12-11T12:46:44.287Z,61.56
2022-12-11T12:49:15.765Z,61.50
2022-12-11T12:51:44.453Z,61.54
2022-12-11T12:54:16.023Z,61.48
2022-12-11T12:56:45.238Z,61.33
2022-12-11T12:59:26.669Z,61.02
2022-12-11T13:02:02.772Z,60.83
2022-12-11T13:04:59.460Z,61.00
2022-12-11T13:07:30.530Z,61.29
2022-12-11T13:10:00.130Z,61.08
2022-12-11T13:12:50.881Z,61.18
2022-12-11T13:15:40.754Z,61.43
2022-12-11T13:18:32.599Z,61.37
2022-12-11T13:20:59.682Z,61.50
2022-12-11T13:23:30.884Z,61.43
2022-12-11T13:26:01.009Z,61.36
2022-12-11T13:28:27.815Z,61.36
2022-12-11T13:31:20.183Z,61.45
2022-12-11T13:33:53.597Z,61.46
2022-12-11T13:36:24.538Z,61.39
2022-12-11T13:39:10.978Z,61.42
2022-12-11T13:41:38.587Z,61.56
2022-12-11T13:44:07.331Z,61.60
2022-12-11T13:46:37.436Z,61.57
2022-12-11T13:49:07.700Z,61.61
2022-12-11T13:51:37.135Z,61.59
2022-12-11T13:54:19.218Z,61.67
2022-12-11T13:57:15.561Z,61.55
2022-12-11T13:59:47.983Z,61.69
2022-12-11T14:02:38.366Z,61.67
2022-12-11T14:05:09.090Z,61.67
2022-12-11T14:07:46.798Z,61.67
2022-12-11T14:10:24.314Z,61.81
2022-12-11T14:12:54.452Z,61.83
2022-12-11T14:15:21.915Z,61.88
2022-12-11T14:17:51.886Z,61.94
2022-12-11T14:20:25.858Z,62.05
2022-12-11T14:23:18.628Z,61.88
2022-12-11T14:26:03.722Z,61.98
2022-12-11T14:28:37.957Z,61.92
2022-12-11T14:31:06.526Z,62.14
2022-12-11T14:33:38.255Z,62.02
2022-12-11T14:36:06.883Z,62.03
2022-12-11T14:38:38.484Z,62.30
2022-12-11T14:41:22.504Z,62.18
2022-12-11T14:43:54.850Z,62.37
2022-12-11T14:46:43.591Z,62.55
2022-12-11T14:49:29.021Z,62.45
2022-12-11T14:51:58.552Z,62.46
2022-12-11T14:54:31.815Z,62.56
2022-12-11T14:56:59.846Z,62.62
2022-12-11T14:59:32.094Z,62.69
2022-12-11T15:02:02.154Z,62.77
2022-12-11T15:04:32.864Z,62.96
2022-12-11T15:07:00.029Z,63.14
2022-12-11T15:09:30.476Z,63.14
2022-12-11T15:12:08.380Z,63.09
2022-12-11T15:14:35.282Z,63.02
2022-12-11T15:17:02.212Z,63.10
2022-12-11T15:19:35.456Z,63.18
2022-12-11T15:22:09.279Z,63.32
2022-12-11T15:24:46.584Z,63.39
2022-12-11T15:27:38.178Z,63.30
2022-12-11T15:30:26.716Z,63.30
2022-12-11T15:33:06.318Z,63.25
2022-12-11T15:35:33.362Z,63.29
2022-12-11T15:38:00.525Z,63.32
2022-12-11T15:40:29.255Z,63.06
2022-12-11T15:42:57.568Z,62.93
2022-12-11T15:45:28.772Z,62.84
2022-12-11T15:47:56.459Z,62.89
2022-12-11T15:50:26.812Z,62.99
2022-12-11T15:52:56.166Z,62.86
2022-12-11T15:55:26.449Z,62.47
2022-12-11T15:57:56.245Z,62.60
2022-12-11T16:00:24.362Z,62.56
2022-12-11T16:02:52.264Z,61.96
2022-12-11T16:05:19.829Z,61.43
2022-12-11T16:07:46.714Z,61.70
2022-12-11T16:10:19.445Z,61.53
2022-12-11T16:12:47.524Z,61.13
2022-12-11T16:15:22.844Z,60.93
2022-12-11T16:17:50.867Z,60.99
2022-12-11T16:20:18.593Z,60.42
2022-12-11T16:22:45.490Z,60.43
2022-12-11T16:25:12.520Z,60.43
2022-12-11T16:27:40.932Z,60.14
2022-12-11T16:30:10.838Z,59.90
2022-12-11T16:32:38.358Z,59.98
2022-12-11T16:35:05.821Z,59.87
2022-12-11T16:37:32.935Z,59.88
2022-12-11T16:40:00.573Z,60.20
2022-12-11T16:42:28.129Z,60.19
2022-12-11T16:45:03.637Z,60.22
2022-12-11T16:47:30.807Z,60.40
2022-12-11T16:50:01.823Z,60.57
2022-12-11T16:52:29.205Z,60.77
2022-12-11T16:54:57.910Z,60.88
2022-12-11T16:57:25.729Z,60.85
2022-12-11T16:59:52.784Z,61.20
2022-12-11T17:02:20.832Z,61.22
2022-12-11T17:04:53.716Z,61.18
2022-12-11T17:07:21.107Z,61.46
2022-12-11T17:09:48.137Z,61.45
2022-12-11T17:12:15.634Z,61.76
2022-12-11T17:14:42.935Z,61.67
2022-12-11T17:17:10.263Z,61.76
2022-12-11T17:19:37.938Z,61.80
2022-12-11T17:22:05.221Z,61.85
2022-12-11T17:24:32.680Z,62.14
2022-12-11T17:27:00.956Z,62.22
2022-12-11T17:29:28.398Z,62.54
2022-12-11T17:31:55.623Z,62.60
2022-12-11T17:34:22.767Z,62.70
2022-12-11T17:36:50.208Z,62.81
2022-12-11T17:39:17.505Z,63.05
2022-12-11T17:41:44.888Z,63.20
2022-12-11T17:44:12.389Z,63.34
2022-12-11T17:46:40.053Z,63.50
2022-12-11T17:49:26.387Z,63.59
2022-12-11T17:52:04.694Z,63.62
2022-12-11T17:54:32.650Z,63.79
2022-12-11T17:57:00.603Z,63.93
2022-12-11T17:59:27.733Z,63.93
2022-12-11T18:01:55.171Z,64.03
2022-12-11T18:04:22.961Z,64.21
2022-12-11T18:06:51.280Z,64.24
2022-12-11T18:09:18.473Z,64.31
2022-12-11T18:11:47.995Z,64.38
2022-12-11T18:14:17.626Z,64.52
2022-12-11T18:16:45.345Z,64.50
2022-12-11T18:19:14.361Z,64.68
2022-12-11T18:21:44.353Z,64.63
2022-12-11T18:24:11.831Z,64.70
2022-12-11T18:26:39.392Z,64.90
2022-12-11T18:29:07.218Z,64.88
2022-12-11T18:31:38.975Z,65.09
2022-12-11T18:34:10.927Z,65.09
2022-12-11T18:36:38.596Z,65.05
2022-12-11T18:39:06.119Z,65.11
2022-12-11T18:41:35.035Z,65.25
2022-12-11T18:44:08.123Z,65.47
2022-12-11T18:46:38.051Z,65.46
2022-12-11T18:49:07.372Z,65.42
2022-12-11T18:51:35.333Z,65.45
2022-12-11T18:54:03.111Z,65.47
2022-12-11T18:56:31.908Z,65.62
2022-12-11T18:58:59.111Z,65.77
2022-12-11T19:01:29.080Z,65.93
2022-12-11T19:04:02.730Z,66.04
2022-12-11T19:06:33.684Z,65.87
2022-12-11T19:09:02.635Z,65.88
2022-12-11T19:11:34.246Z,65.83
2022-12-11T19:14:02.780Z,66.02
2022-12-11T19:16:36.620Z,65.99
2022-12-11T19:19:10.470Z,66.01
2022-12-11T19:21:39.212Z,66.00
2022-12-11T19:24:08.903Z,66.06
2022-12-11T19:26:37.612Z,66.02
2022-12-11T19:29:05.726Z,65.85
2022-12-11T19:31:34.330Z,65.88
2022-12-11T19:34:03.055Z,65.87
2022-12-11T19:36:31.592Z,65.94
2022-12-11T19:39:01.837Z,65.71
2022-12-11T19:41:30.634Z,65.90
2022-12-11T19:44:00.261Z,66.04
2022-12-11T19:46:29.107Z,65.95
2022-12-11T19:48:58.745Z,65.82
2022-12-11T19:51:30.640Z,65.87
2022-12-11T19:53:59.683Z,65.78
2022-12-11T19:56:26.699Z,65.77
2022-12-11T19:58:53.885Z,65.72
2022-12-11T20:01:26.324Z,65.61
2022-12-11T20:03:57.264Z,65.71
2022-12-11T20:06:26.147Z,65.70
2022-12-11T20:08:53.862Z,65.79
2022-12-11T20:11:21.875Z,65.68
2022-12-11T20:13:50.574Z,65.59
2022-12-11T20:16:33.367Z,65.62
2022-12-11T20:19:07.727Z,65.48
2022-12-11T20:21:34.922Z,65.46
2022-12-11T20:24:02.825Z,65.59
2022-12-11T20:26:32.680Z,65.69
2022-12-11T20:29:00.577Z,65.77
2022-12-11T20:31:31.742Z,65.57
2022-12-11T20:33:59.747Z,65.60
2022-12-11T20:36:28.093Z,65.58
2022-12-11T20:38:56.337Z,65.58
2022-12-11T20:41:26.106Z,65.58
2022-12-11T20:43:54.738Z,65.73
2022-12-11T20:46:26.088Z,65.73
2022-12-11T20:48:56.168Z,65.70
2022-12-11T20:51:26.498Z,65.64
2022-12-11T20:53:59.522Z,65.45
2022-12-11T20:56:32.019Z,65.50
2022-12-11T20:59:01.428Z,65.44
2022-12-11T21:01:32.778Z,66.00
2022-12-11T21:04:00.936Z,65.82
2022-12-11T21:06:33.811Z,65.51
2022-12-11T21:09:04.891Z,65.40
2022-12-11T21:11:32.315Z,65.24
2022-12-11T21:13:59.664Z,65.17
2022-12-11T21:16:27.229Z,65.15
2022-12-11T21:18:56.323Z,65.06
2022-12-11T21:21:23.864Z,65.26
2022-12-11T21:23:51.602Z,65.18
2022-12-11T21:26:18.791Z,65.25
2022-12-11T21:28:46.151Z,65.32
2022-12-11T21:31:15.837Z,65.25
2022-12-11T21:33:43.174Z,65.15
2022-12-11T21:36:13.503Z,65.06
2022-12-11T21:38:42.245Z,65.07
2022-12-11T21:41:13.675Z,65.01
2022-12-11T21:44:12.948Z,64.96
2022-12-11T21:46:28.911Z,65.13
2022-12-11T21:48:56.160Z,64.96
2022-12-11T21:51:36.160Z,65.01
2022-12-11T21:54:07.178Z,64.89
2022-12-11T21:56:34.099Z,64.89
2022-12-11T21:59:01.801Z,64.89
2022-12-11T22:01:33.604Z,64.69
2022-12-11T22:04:01.251Z,64.77
2022-12-11T22:06:28.045Z,64.91
2022-12-11T22:08:54.881Z,64.91
2022-12-11T22:11:28.424Z,64.98
2022-12-11T22:13:55.891Z,64.91
2022-12-11T22:16:23.015Z,64.90
2022-12-11T22:18:49.948Z,64.86
2022-12-11T22:21:17.393Z,64.71
2022-12-11T22:23:44.712Z,64.72
2022-12-11T22:26:17.284Z,64.78
2022-12-11T22:28:44.303Z,64.77
2022-12-11T22:31:15.221Z,64.80
2022-12-11T22:33:42.560Z,65.05
2022-12-11T22:36:10.944Z,64.99
2022-12-11T22:38:37.996Z,64.91
2022-12-11T22:41:15.256Z,64.90
2022-12-11T22:43:44.391Z,64.95
2022-12-11T22:46:15.637Z,65.05
2022-12-11T22:48:42.371Z,64.95
2022-12-11T22:51:09.980Z,65.03
2022-12-11T22:53:36.897Z,65.04
2022-12-11T22:56:08.038Z,65.17
2022-12-11T22:58:35.575Z,65.37
2022-12-11T23:01:03.214Z,65.33
2022-12-11T23:03:30.000Z,65.44
2022-12-11T23:05:59.710Z,65.61
2022-12-11T23:08:28.814Z,65.75
2022-12-11T23:10:55.638Z,65.62
2022-12-11T23:13:22.501Z,65.55
2022-12-11T23:15:49.321Z,65.72
2022-12-11T23:18:16.122Z,65.64
2022-12-11T23:20:43.242Z,65.73
2022-12-11T23:23:10.061Z,65.69
2022-12-11T23:25:36.863Z,65.65
2022-12-11T23:28:03.691Z,65.70
2022-12-11T23:30:30.573Z,65.83
2022-12-11T23:32:57.409Z,65.80
2022-12-11T23:35:24.440Z,65.91
2022-12-11T23:37:51.287Z,66.10
2022-12-11T23:40:18.120Z,66.00
2022-12-11T23:42:44.940Z,66.05
2022-12-11T23:45:12.023Z,66.02
2022-12-11T23:47:39.036Z,66.06
2022-12-11T23:50:06.257Z,66.07
2022-12-11T23:52:33.055Z,66.27
2022-12-11T23:54:59.844Z,66.40
2022-12-11T23:57:26.691Z,66.40
2022-12-11T23:59:53.429Z,66.56
